Latest Weather Observations for St Lawrence

IDQ60801

Issued at 11:02 pm EST Thursday 25 August 2016 (issued every 30 minutes, with the page automatically refreshed every 10 minutes)

About weather observations | Map of weather stations | Latest weather observations for QLD | Other Formats
Station Details ID: 033210 Name: ST LAWRENCE Lat: -22.35 Lon: 149.52 Height: 9.19 m
Data from the previous 72 hours. | See also: Recent months at St Lawrence
Date/Time
EST
Temp
°C
App
Temp
°C
Dew
Point
°C
Rel
Hum
%
Delta-T
°C
Wind Press
QNH
hPa
Press
MSL
hPa
Rain since
9am
mm
Dir  Spd
km/h
Gust
km/h
Spd
kts
Gust
kts
25/11:00pm 17.0 18.8 15.5 91 0.9 CALM 0 0 0 0 1015.5 1015.5 0.0
25/10:30pm 17.2 18.6 15.5 90 1.0 SSW 2 7 1 4 1015.6 1015.6 0.0
25/10:00pm 17.4 19.4 15.9 91 0.9 CALM 0 0 0 0 1015.5 1015.5 0.0
25/09:30pm 17.5 19.4 15.8 90 1.0 CALM 0 0 0 0 1015.3 1015.3 0.0
25/09:00pm 18.0 20.0 16.0 88 1.2 CALM 0 0 0 0 1015.3 1015.3 0.0
25/08:30pm 18.3 20.3 16.1 87 1.3 CALM 0 0 0 0 1015.0 1015.0 0.0
25/08:00pm 18.4 19.6 16.0 86 1.4 NNE 4 7 2 4 1015.0 1015.0 0.0
25/07:30pm 18.5 19.3 15.9 85 1.5 ENE 6 7 3 4 1014.2 1014.2 0.0
25/07:00pm 18.5 19.2 15.6 83 1.7 ENE 6 7 3 4 1014.1 1014.1 0.0
25/06:30pm 18.9 19.5 15.4 80 2.1 E 6 7 3 4 1013.6 1013.6 0.0
25/06:00pm 19.6 21.3 15.3 76 2.5 CALM 0 0 0 0 1013.4 1013.4 0.0
25/05:30pm 20.3 21.1 14.9 71 3.2 E 4 7 2 4 1013.1 1013.1 0.0
25/05:00pm 20.7 21.7 14.4 67 3.7 E 2 7 1 4 1012.9 1012.9 0.0
25/04:30pm 20.9 21.2 14.5 67 3.7 ESE 6 9 3 5 1012.6 1012.6 0.0
25/04:00pm 20.9 21.1 14.3 66 3.8 SSE 6 11 3 6 1012.6 1012.6 0.0
25/03:30pm 20.7 20.8 14.4 67 3.7 SSE 7 9 4 5 1012.6 1012.6 0.0
25/03:00pm 20.7 20.5 14.6 68 3.6 S 9 11 5 6 1012.4 1012.4 0.0
25/02:30pm 20.5 19.7 13.9 66 3.8 S 11 19 6 10 1012.6 1012.6 0.0
25/02:00pm 20.1 19.5 14.5 70 3.3 SE 11 17 6 9 1012.5 1012.5 0.0
25/01:30pm 19.8 18.7 14.4 71 3.1 S 13 20 7 11 1012.7 1012.7 0.0
25/01:00pm 19.2 18.0 14.0 72 3.0 S 13 19 7 10 1013.1 1013.1 0.0
25/12:30pm 18.9 17.9 14.6 76 2.5 SSE 13 19 7 10 1013.0 1013.0 0.0
25/12:00pm 19.1 18.7 15.2 78 2.3 SSE 11 19 6 10 1013.1 1013.1 0.0
25/11:30am 18.7 18.4 15.4 81 1.9 S 11 17 6 9 1013.7 1013.7 0.0
25/11:00am 19.9 20.4 16.5 81 2.0 S 9 11 5 6 1013.7 1013.7 0.0
25/10:30am 19.9 21.2 17.1 84 1.7 SSE 6 7 3 4 1013.5 1013.5 0.0
25/10:00am 19.9 22.0 17.3 85 1.6 SW 2 7 1 4 1014.1 1014.1 0.0
25/09:30am 19.6 21.5 16.8 84 1.7 ESE 2 6 1 3 1013.9 1013.9 0.0
25/09:00am 19.5 21.3 17.5 88 1.2 SSE 4 6 2 3 1013.8 1013.8 15.4
25/08:30am 19.0 20.1 16.6 86 1.4 SW 6 9 3 5 1013.6 1013.6 15.4
25/08:00am 18.7 19.8 16.7 88 1.2 SSW 6 9 3 5 1013.4 1013.4 15.4
25/07:30am 18.4 20.3 16.6 89 1.1 WSW 2 6 1 3 1013.1 1013.1 15.4
25/07:00am 18.1 20.0 16.8 92 0.8 WNW 2 6 1 3 1013.1 1013.1 15.4
25/06:30am 18.3 20.1 17.3 94 0.6 S 4 7 2 4 1012.6 1012.6 15.4
25/06:00am 18.5 20.7 17.5 94 0.6 NNW 2 7 1 4 1012.6 1012.6 15.4
25/05:30am 18.3 20.7 17.1 93 0.7 CALM 0 0 0 0 1012.0 1012.0 15.2
25/05:00am 18.4 21.0 17.6 95 0.5 CALM 0 0 0 0 1011.6 1011.6 15.2
25/04:30am 18.3 20.1 17.3 94 0.6 ESE 4 7 2 4 1011.4 1011.4 15.2
25/04:00am 18.2 20.3 17.2 94 0.6 S 2 6 1 3 1011.4 1011.4 15.2
25/03:30am 18.3 20.5 17.5 95 0.5 W 2 7 1 4 1011.1 1011.1 15.2
25/03:00am 18.3 20.9 17.5 95 0.5 CALM 0 0 0 0 1011.0 1011.0 15.0
25/02:30am 18.3 20.9 17.5 95 0.5 CALM 0 0 0 0 1011.3 1011.3 15.0
25/02:00am 18.3 20.5 17.5 95 0.5 NNE 2 7 1 4 1011.9 1011.9 15.0
25/01:30am 18.3 19.8 17.5 95 0.5 NNW 6 7 3 4 1012.7 1012.7 14.8
25/01:00am 18.3 20.1 17.5 95 0.5 NNE 4 7 2 4 1012.5 1012.5 14.8
25/12:30am 18.3 18.8 17.5 95 0.5 N 11 13 6 7 1013.6 1013.6 14.2
25/12:00am 18.2 19.0 17.4 95 0.5 N 9 11 5 6 1013.7 1013.7 14.2
 
Date/Time
EST
Temp
°C
App
Temp
°C
Dew
Point
°C
Rel
Hum
%
Delta-T
°C
Wind Press
QNH
hPa
Press
MSL
hPa
Rain since
9am
mm
Dir  Spd
km/h
Gust
km/h
Spd
kts
Gust
kts
24/11:30pm 18.3 19.2 17.5 95 0.5 N 9 11 5 6 1013.5 1013.5 14.0
24/11:00pm 18.3 19.2 17.5 95 0.5 N 9 11 5 6 1013.4 1013.4 14.0
24/10:30pm 18.5 20.0 17.7 95 0.5 WSW 6 7 3 4 1013.7 1013.7 12.6
24/10:00pm 18.4 20.2 17.4 94 0.6 NE 4 11 2 6 1013.4 1013.4 12.4
24/09:30pm 18.5 19.7 17.3 93 0.7 NW 7 13 4 7 1013.7 1013.7 10.4
24/09:00pm 18.7 19.6 17.5 93 0.7 WSW 9 15 5 8 1012.8 1012.8 6.4
24/08:30pm 19.1 21.7 17.4 90 1.0 CALM 0 0 0 0 1011.4 1011.4 6.0
24/08:00pm 19.1 21.3 17.4 90 1.0 E 2 6 1 3 1011.3 1011.3 6.0
24/07:30pm 18.8 20.5 17.1 90 1.0 ESE 4 7 2 4 1011.3 1011.3 6.0
24/07:00pm 18.7 20.0 17.0 90 1.0 ESE 6 9 3 5 1011.1 1011.1 5.8
24/06:30pm 18.6 19.6 16.9 90 1.0 E 7 11 4 6 1010.8 1010.8 5.8
24/06:00pm 19.3 21.0 17.1 87 1.3 NE 4 9 2 5 1011.0 1011.0 5.8
24/05:30pm 20.0 20.1 16.4 80 2.2 S 11 17 6 9 1010.0 1010.0 4.2
24/05:00pm 20.5 19.2 15.9 75 2.8 S 17 22 9 12 1009.5 1009.5 4.2
24/04:30pm 21.5 20.8 16.5 73 3.0 S 15 24 8 13 1009.6 1009.6 4.2
24/04:00pm 21.2 20.8 17.2 78 2.5 SSE 15 26 8 14 1009.1 1009.1 4.2
24/03:30pm 20.8 19.6 18.4 86 1.5 S 22 33 12 18 1008.9 1008.9 4.2
24/03:00pm 21.8 21.5 18.2 80 2.2 SE 17 33 9 18 1008.8 1008.8 4.2
24/02:30pm 24.4 26.2 20.3 78 2.7 ESE 11 19 6 10 1007.9 1007.9 3.2
24/02:00pm 23.7 25.5 21.2 86 1.6 NE 13 20 7 11 1008.4 1008.4 3.2
24/01:30pm 25.7 26.8 20.5 73 3.4 NE 15 24 8 13 1007.9 1007.9 0.0
24/01:00pm 26.2 27.0 19.8 68 4.2 NE 15 22 8 12 1008.5 1008.5 0.0
24/12:30pm 27.0 27.4 19.9 65 4.6 NE 17 22 9 12 1008.9 1008.9 0.0
24/12:00pm 26.7 27.9 19.1 63 4.9 ENE 11 19 6 10 1009.2 1009.2 0.0
24/11:30am 26.4 27.3 19.3 65 4.6 NE 13 19 7 10 1009.7 1009.7 0.0
24/11:00am 25.8 26.4 18.7 65 4.5 NE 13 19 7 10 1010.3 1010.3 0.0
24/10:30am 26.7 28.5 18.3 60 5.3 S 6 9 3 5 1010.6 1010.6 0.0
24/10:00am 25.9 27.9 18.8 65 4.5 SE 6 9 3 5 1011.1 1011.1 0.0
24/09:30am 24.5 25.8 17.2 63 4.5 SSW 6 9 3 5 1011.5 1011.5 0.0
24/09:00am 23.3 25.1 18.4 74 3.1 NE 6 11 3 6 1011.1 1011.1 0.0
24/08:30am 21.9 23.7 18.3 80 2.2 N 6 7 3 4 1010.8 1010.8 0.0
24/08:00am 21.1 24.2 18.7 86 1.5 CALM 0 0 0 0 1010.8 1010.8 0.0
24/07:30am 18.5 20.3 17.5 94 0.6 WSW 4 7 2 4 1010.6 1010.6 0.0
24/07:00am 17.4 19.5 16.3 93 0.7 CALM 0 0 0 0 1010.1 1010.1 0.0
24/06:30am 17.6 19.8 16.5 93 0.7 CALM 0 0 0 0 1009.7 1009.7 0.0
24/06:00am 18.0 19.4 16.5 91 0.9 S 4 7 2 4 1009.3 1009.3 0.0
24/05:30am 18.3 20.1 16.5 89 1.1 E 2 9 1 5 1008.8 1008.8 0.0
24/05:00am 18.9 20.1 17.4 91 0.9 NE 7 9 4 5 1008.2 1008.2 0.0
24/04:30am 19.4 20.8 17.4 88 1.2 N 6 6 3 3 1008.1 1008.1 0.0
24/04:00am 20.2 21.3 18.1 88 1.3 NNE 9 11 5 6 1007.8 1007.8 0.0
24/03:30am 20.6 21.5 18.5 88 1.3 NNE 11 15 6 8 1008.1 1008.1 0.0
24/03:00am 20.6 21.2 18.7 89 1.2 NNE 13 19 7 10 1008.4 1008.4 0.0
24/02:30am 20.5 21.9 18.6 89 1.2 NNE 9 13 5 7 1008.7 1008.7 0.0
24/02:00am 20.6 21.2 18.7 89 1.2 NNE 13 17 7 9 1008.8 1008.8 0.0
24/01:30am 20.8 21.4 18.7 88 1.3 NNE 13 19 7 10 1009.5 1009.5 0.0
24/01:00am 21.1 21.5 18.9 87 1.4 N 15 19 8 10 1009.6 1009.6 0.0
24/12:30am 21.3 21.3 18.9 86 1.5 NNE 17 26 9 14 1009.9 1009.9 0.0
24/12:00am 21.4 21.8 19.0 86 1.5 NNE 15 22 8 12 1010.5 1010.5 0.0
 
Date/Time
EST
Temp
°C
App
Temp
°C
Dew
Point
°C
Rel
Hum
%
Delta-T
°C
Wind Press
QNH
hPa
Press
MSL
hPa
Rain since
9am
mm
Dir  Spd
km/h
Gust
km/h
Spd
kts
Gust
kts
23/11:30pm 21.4 22.0 19.5 89 1.2 NNE 15 19 8 10 1010.6 1010.6 0.0
23/11:00pm 21.6 22.7 19.7 89 1.2 NNE 13 19 7 10 1011.0 1011.0 0.0
23/10:30pm 21.9 23.1 20.0 89 1.2 NNE 13 19 7 10 1011.4 1011.4 0.0
23/10:00pm 21.8 23.0 19.9 89 1.2 NNE 13 17 7 9 1011.6 1011.6 0.0
23/09:30pm 21.9 24.0 20.2 90 1.1 NNE 9 13 5 7 1011.7 1011.7 0.0
23/09:00pm 21.9 23.6 20.2 90 1.1 NE 11 17 6 9 1011.7 1011.7 0.0
23/08:30pm 22.1 23.5 20.4 90 1.1 NE 13 17 7 9 1011.7 1011.7 0.0
23/08:00pm 21.9 23.1 20.0 89 1.2 NE 13 19 7 10 1011.5 1011.5 0.0
23/07:30pm 22.1 23.1 20.2 89 1.2 NE 15 20 8 11 1011.2 1011.2 0.0
23/07:00pm 22.2 23.1 20.1 88 1.4 NE 15 20 8 11 1011.0 1011.0 0.0
23/06:30pm 22.6 24.0 20.3 87 1.5 NE 13 20 7 11 1010.9 1010.9 0.0
23/06:00pm 22.6 23.1 20.1 86 1.6 NE 17 24 9 13 1010.7 1010.7 0.0
23/05:30pm 23.0 24.2 20.0 83 1.9 NE 13 20 7 11 1010.7 1010.7 0.0
23/05:00pm 23.3 23.3 19.7 80 2.3 NE 19 24 10 13 1010.5 1010.5 0.0
23/04:30pm 24.0 23.9 19.9 78 2.6 NNE 20 28 11 15 1010.1 1010.1 0.0
23/04:00pm 23.9 24.3 19.8 78 2.6 NE 17 24 9 13 1010.1 1010.1 0.0
23/03:30pm 24.4 24.4 19.7 75 3.0 NE 19 26 10 14 1010.2 1010.2 0.0
23/03:00pm 25.3 25.7 19.9 72 3.5 NE 17 22 9 12 1010.3 1010.3 0.0
23/02:30pm 24.5 24.9 19.8 75 3.0 NE 17 24 9 13 1010.4 1010.4 0.0
23/02:00pm 24.6 24.4 19.7 74 3.2 NNE 20 28 11 15 1010.7 1010.7 0.0
23/01:30pm 24.9 24.5 19.3 71 3.6 NE 20 28 11 15 1010.9 1010.9 0.0
23/01:00pm 25.0 24.3 19.6 72 3.5 NE 22 30 12 16 1011.1 1011.1 0.0
23/12:30pm 25.5 25.5 20.1 72 3.5 NE 20 26 11 14 1011.6 1011.6 0.0
23/12:00pm 25.3 25.3 19.7 71 3.6 NE 19 26 10 14 1012.2 1012.2 0.0
23/11:30am 25.1 25.4 20.4 75 3.1 NNE 19 28 10 15 1012.6 1012.6 0.0
23/11:00am 24.8 24.4 20.1 75 3.0 NNE 22 30 12 16 1012.8 1012.8 0.0
23/10:30am 24.0 24.1 19.9 78 2.6 NE 19 24 10 13 1013.2 1013.2 0.0
23/10:00am 23.4 23.2 19.8 80 2.3 NE 20 30 11 16 1013.4 1013.4 0.0
23/09:30am 23.0 23.5 20.0 83 1.9 NE 17 24 9 13 1013.3 1013.3 0.0
23/09:00am 22.8 24.3 20.5 87 1.5 NE 13 20 7 11 1013.3 1013.3 0.0
23/08:30am 20.7 22.8 19.0 90 1.1 ENE 6 11 3 6 1013.5 1013.5 0.0
23/08:00am 19.8 22.7 18.3 91 0.9 CALM 0 0 0 0 1013.6 1013.6 0.0
23/07:30am 18.7 21.3 17.4 92 0.8 CALM 0 0 0 0 1013.3 1013.3 0.0
23/07:00am 18.3 20.8 17.3 94 0.6 CALM 0 0 0 0 1013.3 1013.3 0.0
23/06:30am 17.6 19.8 16.5 93 0.7 CALM 0 0 0 0 1013.4 1013.4 0.0
23/06:00am 17.4 19.5 16.3 93 0.7 CALM 0 0 0 0 1013.4 1013.4 0.0
23/05:30am 17.5 19.6 16.2 92 0.8 CALM 0 0 0 0 1013.3 1013.3 0.0
23/05:00am 17.1 18.9 15.6 91 0.9 CALM 0 0 0 0 1013.2 1013.2 0.0
23/04:30am 17.9 20.2 16.8 93 0.7 CALM 0 0 0 0 1013.2 1013.2 0.0
23/04:00am 18.0 20.2 16.5 91 0.9 CALM 0 0 0 0 1013.1 1013.1 0.0
23/03:30am 18.3 20.7 17.0 92 0.8 CALM 0 0 0 0 1013.2 1013.2 0.0
23/03:00am 18.6 21.2 17.4 93 0.7 CALM 0 0 0 0 1013.4 1013.4 0.0
23/02:30am 18.2 20.2 16.9 92 0.8 SSW 2 6 1 3 1013.6 1013.6 0.0
23/02:00am 18.3 19.4 17.1 93 0.7 SW 7 7 4 4 1013.8 1013.8 0.0
23/01:30am 18.0 20.4 16.9 93 0.7 CALM 0 0 0 0 1014.0 1014.0 0.0
23/01:00am 17.7 19.9 16.4 92 0.8 CALM 0 0 0 0 1014.1 1014.1 0.0
23/12:30am 17.8 19.6 16.5 92 0.8 WSW 2 6 1 3 1014.4 1014.4 0.0
23/12:00am 18.1 20.3 16.4 90 1.0 CALM 0 0 0 0 1014.5 1014.5 0.0
 
Date/Time
EST
Temp
°C
App
Temp
°C
Dew
Point
°C
Rel
Hum
%
Delta-T
°C
Wind Press
QNH
hPa
Press
MSL
hPa
Rain since
9am
mm
Dir  Spd
km/h
Gust
km/h
Spd
kts
Gust
kts
22/11:30pm 18.8 21.2 16.9 89 1.1 CALM 0 0 0 0 1014.7 1014.7 0.0

Other Formats:

Comma delimited format used in spreadsheet applications
http://www.bom.gov.au/fwo/IDQ60801/IDQ60801.95369.axf

JavaScript Object Notation format (JSON) in row-major order
http://www.bom.gov.au/fwo/IDQ60801/IDQ60801.95369.json